createdAt,value
2023-04-30T00:00:18.247Z,101156.53
2023-04-30T00:03:25.044Z,101159.19
2023-04-30T00:06:31.671Z,101148.47
2023-04-30T00:09:37.071Z,101145.59
2023-04-30T00:12:42.156Z,101142.41
2023-04-30T00:15:47.452Z,101143.44
2023-04-30T00:18:53.032Z,101135.56
2023-04-30T00:21:58.325Z,101139.38
2023-04-30T00:25:03.961Z,101144.72
2023-04-30T00:28:09.586Z,101147.13
2023-04-30T00:31:15.019Z,101141.47
2023-04-30T00:34:20.626Z,101146.50
2023-04-30T00:37:26.226Z,101145.19
2023-04-30T00:40:31.571Z,101136.44
2023-04-30T00:43:36.805Z,101135.00
2023-04-30T00:46:42.431Z,101130.81
2023-04-30T00:49:48.501Z,101123.53
2023-04-30T00:52:54.016Z,101119.50
2023-04-30T00:55:59.472Z,101114.91
2023-04-30T00:59:05.127Z,101107.16
2023-04-30T01:02:10.727Z,101104.25
2023-04-30T01:05:16.854Z,101106.22
2023-04-30T01:08:22.244Z,101113.47
2023-04-30T01:11:33.498Z,101109.97
2023-04-30T01:15:03.560Z,101109.69
2023-04-30T01:18:26.337Z,101120.81
2023-04-30T01:21:33.840Z,101113.22
2023-04-30T01:24:55.244Z,101119.25
2023-04-30T01:28:05.597Z,101115.59
2023-04-30T01:31:16.875Z,101122.13
2023-04-30T01:34:22.111Z,101118.72
2023-04-30T01:37:38.919Z,101126.75
2023-04-30T01:41:09.779Z,101132.16
2023-04-30T01:44:50.652Z,101129.63
2023-04-30T01:48:16.336Z,101127.84
2023-04-30T01:51:42.700Z,101130.00
2023-04-30T01:55:00.413Z,101122.06
2023-04-30T01:58:10.713Z,101125.72
2023-04-30T02:01:33.573Z,101128.41
2023-04-30T02:04:39.345Z,101121.28
2023-04-30T02:07:48.724Z,101114.19
2023-04-30T02:10:53.991Z,101120.69
2023-04-30T02:13:59.324Z,101115.59
2023-04-30T02:17:06.467Z,101121.41
2023-04-30T02:20:12.206Z,101109.31
2023-04-30T02:23:17.394Z,101107.13
2023-04-30T02:26:23.036Z,101102.34
2023-04-30T02:29:28.600Z,101110.88
2023-04-30T02:32:34.645Z,101102.66
2023-04-30T02:35:41.510Z,101097.91
2023-04-30T02:38:47.507Z,101092.44
2023-04-30T02:41:52.998Z,101096.75
2023-04-30T02:44:58.192Z,101089.78
2023-04-30T02:48:03.539Z,101097.00
2023-04-30T02:51:09.000Z,101094.81
2023-04-30T02:54:14.359Z,101097.22
2023-04-30T02:57:19.983Z,101094.16
2023-04-30T03:00:25.559Z,101094.47
2023-04-30T03:03:31.153Z,101085.06
2023-04-30T03:06:37.550Z,101082.06
2023-04-30T03:09:44.098Z,101084.56
2023-04-30T03:12:49.408Z,101083.66
2023-04-30T03:16:00.635Z,101086.34
2023-04-30T03:19:06.090Z,101082.63
2023-04-30T03:22:11.997Z,101076.53
2023-04-30T03:25:17.551Z,101076.19
2023-04-30T03:28:22.855Z,101079.38
2023-04-30T03:31:28.022Z,101081.63
2023-04-30T03:34:33.865Z,101079.84
2023-04-30T03:37:40.257Z,101081.78
2023-04-30T03:40:45.836Z,101081.63
2023-04-30T03:43:51.393Z,101083.66
2023-04-30T03:46:56.642Z,101083.38
2023-04-30T03:50:01.553Z,101075.44
2023-04-30T03:53:06.539Z,101081.34
2023-04-30T03:56:12.106Z,101081.34
2023-04-30T03:59:18.106Z,101081.34
2023-04-30T04:02:23.668Z,101083.78
2023-04-30T04:05:30.050Z,101088.13
2023-04-30T04:08:36.557Z,101094.44
2023-04-30T04:11:41.930Z,101090.28
2023-04-30T04:14:47.936Z,101099.97
2023-04-30T04:17:53.392Z,101100.31
2023-04-30T04:20:58.603Z,101101.94
2023-04-30T04:24:08.715Z,101102.34
2023-04-30T04:27:14.212Z,101106.81
2023-04-30T04:30:20.010Z,101112.91
2023-04-30T04:33:28.293Z,101114.28
2023-04-30T04:36:34.461Z,101125.41
2023-04-30T04:39:39.659Z,101125.81
2023-04-30T04:42:45.939Z,101127.59
2023-04-30T04:45:52.745Z,101127.94
2023-04-30T04:48:58.965Z,101133.28
2023-04-30T04:52:05.890Z,101132.13
2023-04-30T04:55:12.321Z,101133.44
2023-04-30T04:58:18.367Z,101139.59
2023-04-30T05:01:23.704Z,101136.94
2023-04-30T05:04:28.911Z,101142.34
2023-04-30T05:07:35.387Z,101145.78
2023-04-30T05:10:41.336Z,101147.41
2023-04-30T05:13:47.787Z,101148.97
2023-04-30T05:16:53.407Z,101151.06
2023-04-30T05:19:58.692Z,101155.34
2023-04-30T05:23:03.845Z,101157.03
2023-04-30T05:26:09.124Z,101155.78
2023-04-30T05:29:14.275Z,101151.91
2023-04-30T05:32:19.365Z,101150.38
2023-04-30T05:35:24.447Z,101155.59
2023-04-30T05:38:30.070Z,101155.41
2023-04-30T05:41:35.758Z,101160.84
2023-04-30T05:44:42.015Z,101147.53
2023-04-30T05:47:47.678Z,101161.59
2023-04-30T05:50:53.249Z,101162.78
2023-04-30T05:53:58.796Z,101165.78
2023-04-30T05:57:04.434Z,101168.13
2023-04-30T06:00:10.580Z,101172.97
2023-04-30T06:03:20.329Z,101172.44
2023-04-30T06:06:25.728Z,101185.06
2023-04-30T06:09:30.873Z,101177.78
2023-04-30T06:12:36.754Z,101181.84
2023-04-30T06:15:42.425Z,101179.47
2023-04-30T06:18:47.710Z,101176.97
2023-04-30T06:21:53.166Z,101176.50
2023-04-30T06:24:58.714Z,101182.09
2023-04-30T06:28:04.293Z,101170.88
2023-04-30T06:31:09.989Z,101181.16
2023-04-30T06:34:15.325Z,101180.84
2023-04-30T06:37:20.695Z,101184.66
2023-04-30T06:40:25.988Z,101192.22
2023-04-30T06:43:31.420Z,101186.13
2023-04-30T06:46:36.598Z,101184.63
2023-04-30T06:49:42.041Z,101177.56
2023-04-30T06:52:47.728Z,101179.31
2023-04-30T06:55:53.453Z,101182.59
2023-04-30T06:58:58.577Z,101188.53
2023-04-30T07:02:04.128Z,101188.81
2023-04-30T07:05:11.459Z,101201.06
2023-04-30T07:08:16.692Z,101203.75
2023-04-30T07:11:22.205Z,101204.97
2023-04-30T07:14:27.456Z,101204.13
2023-04-30T07:17:32.409Z,101204.13
2023-04-30T07:20:37.714Z,101204.66
2023-04-30T07:23:44.465Z,101204.13
2023-04-30T07:26:50.608Z,101205.81
2023-04-30T07:29:56.570Z,101207.22
2023-04-30T07:33:02.221Z,101213.69
2023-04-30T07:36:08.196Z,101218.84
2023-04-30T07:39:14.231Z,101227.50
2023-04-30T07:42:19.836Z,101222.13
2023-04-30T07:45:24.954Z,101216.75
2023-04-30T07:48:30.606Z,101208.16
2023-04-30T07:51:36.373Z,101214.63
2023-04-30T07:54:41.875Z,101203.59
2023-04-30T07:57:47.642Z,101213.13
2023-04-30T08:00:52.984Z,101208.50
2023-04-30T08:03:58.761Z,101207.16
2023-04-30T08:07:04.786Z,101212.78
2023-04-30T08:10:10.061Z,101223.38
2023-04-30T08:13:15.281Z,101219.63
2023-04-30T08:16:20.655Z,101221.75
2023-04-30T08:19:26.007Z,101216.91
2023-04-30T08:22:31.577Z,101219.31
2023-04-30T08:25:37.242Z,101217.97
2023-04-30T08:28:42.813Z,101222.56
2023-04-30T08:31:48.273Z,101226.59
2023-04-30T08:34:54.840Z,101221.19
2023-04-30T08:37:59.982Z,101222.28
2023-04-30T08:41:16.099Z,101226.84
2023-04-30T08:44:24.065Z,101223.84
2023-04-30T08:47:30.479Z,101224.38
2023-04-30T08:50:35.962Z,101231.91
2023-04-30T08:53:42.722Z,101220.84
2023-04-30T08:56:48.427Z,101228.97
2023-04-30T08:59:55.013Z,101224.06
2023-04-30T09:03:01.650Z,101230.88
2023-04-30T09:06:07.300Z,101223.00
2023-04-30T09:09:14.372Z,101221.09
2023-04-30T09:12:20.622Z,101224.38
2023-04-30T09:15:26.656Z,101228.69
2023-04-30T09:18:39.873Z,101230.03
2023-04-30T09:21:45.325Z,101220.84
2023-04-30T09:24:52.035Z,101224.91
2023-04-30T09:28:14.694Z,101222.19
2023-04-30T09:31:22.275Z,101216.22
2023-04-30T09:34:36.271Z,101218.31
2023-04-30T09:37:41.736Z,101219.63
2023-04-30T09:40:47.372Z,101219.81
2023-04-30T09:43:57.644Z,101217.66
2023-04-30T09:47:03.740Z,101210.25
2023-04-30T09:50:14.078Z,101212.75
2023-04-30T09:53:20.501Z,101210.47
2023-04-30T09:56:27.053Z,101209.16
2023-04-30T09:59:38.317Z,101203.91
2023-04-30T10:02:44.354Z,101207.06
2023-04-30T10:05:53.565Z,101213.69
2023-04-30T10:08:59.678Z,101199.56
2023-04-30T10:12:13.377Z,101207.19
2023-04-30T10:15:26.873Z,101200.50
2023-04-30T10:18:35.614Z,101206.25
2023-04-30T10:21:43.397Z,101196.06
2023-04-30T10:24:50.687Z,101191.59
2023-04-30T10:27:56.908Z,101185.38
2023-04-30T10:31:03.256Z,101192.31
2023-04-30T10:34:19.343Z,101191.22
2023-04-30T10:37:55.396Z,101201.84
2023-04-30T10:41:02.504Z,101178.44
2023-04-30T10:44:08.305Z,101181.56
2023-04-30T10:47:13.795Z,101178.69
2023-04-30T10:50:24.320Z,101176.84
2023-04-30T10:53:34.198Z,101184.53
2023-04-30T10:56:40.081Z,101180.84
2023-04-30T11:00:15.343Z,101178.59
2023-04-30T11:03:22.804Z,101174.47
2023-04-30T11:06:56.769Z,101175.75
2023-04-30T11:10:02.938Z,101158.47
2023-04-30T11:13:10.497Z,101162.91
2023-04-30T11:16:20.709Z,101153.06
2023-04-30T11:19:28.286Z,101154.50
2023-04-30T11:22:36.590Z,101166.06
2023-04-30T11:25:46.198Z,101163.31
2023-04-30T11:28:55.273Z,101164.63
2023-04-30T11:32:01.798Z,101163.19
2023-04-30T11:35:08.313Z,101172.81
2023-04-30T11:38:15.802Z,101169.44
2023-04-30T11:41:21.822Z,101157.66
2023-04-30T11:44:27.508Z,101173.53
2023-04-30T11:47:46.397Z,101156.75
2023-04-30T11:50:52.845Z,101152.25
2023-04-30T11:53:58.563Z,101159.41
2023-04-30T11:57:04.627Z,101149.28
2023-04-30T12:00:13.296Z,101147.88
2023-04-30T12:03:19.503Z,101153.69
2023-04-30T12:06:27.943Z,101150.09
2023-04-30T12:09:52.016Z,101149.03
2023-04-30T12:12:57.898Z,101143.44
2023-04-30T12:16:03.876Z,101151.56
2023-04-30T12:19:09.891Z,101149.13
2023-04-30T12:22:15.784Z,101142.41
2023-04-30T12:25:23.353Z,101151.28
2023-04-30T12:28:29.294Z,101136.03
2023-04-30T12:31:35.206Z,101127.28
2023-04-30T12:34:40.956Z,101124.25
2023-04-30T12:37:53.197Z,101121.53
2023-04-30T12:40:58.852Z,101119.22
2023-04-30T12:44:17.829Z,101121.34
2023-04-30T12:47:25.543Z,101125.25
2023-04-30T12:50:31.736Z,101113.16
2023-04-30T12:53:46.500Z,101109.50
2023-04-30T12:57:00.161Z,101120.63
2023-04-30T13:00:08.494Z,101105.78
2023-04-30T13:03:15.113Z,101106.75
2023-04-30T13:06:23.261Z,101114.69
2023-04-30T13:09:29.600Z,101100.63
2023-04-30T13:12:35.546Z,101102.34
2023-04-30T13:15:43.441Z,101106.28
2023-04-30T13:18:49.364Z,101098.38
2023-04-30T13:21:54.861Z,101085.66
2023-04-30T13:25:01.111Z,101091.97
2023-04-30T13:28:07.492Z,101088.31
2023-04-30T13:31:13.363Z,101079.59
2023-04-30T13:34:18.800Z,101086.22
2023-04-30T13:37:24.630Z,101084.81
2023-04-30T13:40:30.579Z,101078.59
2023-04-30T13:43:41.497Z,101078.97
2023-04-30T13:46:49.133Z,101073.75
2023-04-30T13:49:54.471Z,101078.88
2023-04-30T13:53:00.397Z,101083.56
2023-04-30T13:56:06.774Z,101072.28
2023-04-30T13:59:12.370Z,101082.13
2023-04-30T14:02:18.793Z,101076.56
2023-04-30T14:05:24.502Z,101077.66
2023-04-30T14:08:32.174Z,101076.06
2023-04-30T14:11:37.982Z,101081.88
2023-04-30T14:14:43.383Z,101071.63
2023-04-30T14:17:48.912Z,101078.44
2023-04-30T14:20:54.344Z,101064.66
2023-04-30T14:24:00.035Z,101073.09
2023-04-30T14:27:05.773Z,101064.97
2023-04-30T14:30:11.680Z,101057.50
2023-04-30T14:33:17.402Z,101057.16
2023-04-30T14:36:23.006Z,101063.09
2023-04-30T14:39:28.325Z,101053.03
2023-04-30T14:42:34.089Z,101049.22
2023-04-30T14:45:40.425Z,101054.66
2023-04-30T14:48:46.448Z,101057.56
2023-04-30T14:51:52.158Z,101056.47
2023-04-30T14:54:57.838Z,101053.53
2023-04-30T14:58:04.590Z,101038.75
2023-04-30T15:01:10.172Z,101042.91
2023-04-30T15:04:15.509Z,101048.88
2023-04-30T15:07:21.358Z,101050.75
2023-04-30T15:10:27.118Z,101048.69
2023-04-30T15:13:33.320Z,101051.28
2023-04-30T15:16:39.518Z,101051.16
2023-04-30T15:19:44.877Z,101051.69
2023-04-30T15:22:51.088Z,101049.34
2023-04-30T15:25:57.269Z,101053.78
2023-04-30T15:29:02.694Z,101057.69
2023-04-30T15:32:08.172Z,101054.03
2023-04-30T15:35:13.941Z,101060.06
2023-04-30T15:38:20.706Z,101059.91
2023-04-30T15:41:26.324Z,101065.44
2023-04-30T15:44:31.776Z,101055.72
2023-04-30T15:47:41.414Z,101060.19
2023-04-30T15:50:47.195Z,101053.47
2023-04-30T15:53:52.723Z,101052.19
2023-04-30T15:56:58.760Z,101051.16
2023-04-30T16:00:05.447Z,101045.81
2023-04-30T16:03:17.349Z,101051.66
2023-04-30T16:06:23.604Z,101061.38
2023-04-30T16:09:30.146Z,101057.06
2023-04-30T16:12:35.776Z,101067.06
2023-04-30T16:15:41.268Z,101061.13
2023-04-30T16:18:46.879Z,101072.41
2023-04-30T16:21:52.437Z,101067.16
2023-04-30T16:24:58.188Z,101063.84
2023-04-30T16:28:03.682Z,101066.31
2023-04-30T16:31:09.408Z,101063.97
2023-04-30T16:34:14.776Z,101063.31
2023-04-30T16:37:20.186Z,101061.53
2023-04-30T16:40:26.496Z,101058.31
2023-04-30T16:43:32.311Z,101053.53
2023-04-30T16:46:38.130Z,101054.06
2023-04-30T16:49:43.776Z,101047.16
2023-04-30T16:52:49.138Z,101042.81
2023-04-30T16:55:55.360Z,101052.56
2023-04-30T16:59:01.010Z,101042.66
2023-04-30T17:02:07.101Z,101045.16
2023-04-30T17:05:12.527Z,101047.31
2023-04-30T17:08:17.817Z,101054.69
2023-04-30T17:11:24.722Z,101046.09
2023-04-30T17:14:30.685Z,101051.81
2023-04-30T17:17:35.990Z,101055.63
2023-04-30T17:20:41.978Z,101050.66
2023-04-30T17:23:47.437Z,101059.88
2023-04-30T17:26:53.620Z,101047.44
2023-04-30T17:29:59.451Z,101043.00
2023-04-30T17:33:06.375Z,101052.47
2023-04-30T17:36:12.665Z,101050.84
2023-04-30T17:39:19.191Z,101047.63
2023-04-30T17:42:24.874Z,101057.13
2023-04-30T17:45:29.768Z,101061.88
2023-04-30T17:48:34.865Z,101062.13
2023-04-30T17:51:40.326Z,101057.00
2023-04-30T17:54:38.827Z,101061.63
2023-04-30T17:57:44.539Z,101065.47
2023-04-30T18:00:51.206Z,101067.13
2023-04-30T18:03:59.617Z,101058.50
2023-04-30T18:07:05.159Z,101063.94
2023-04-30T18:10:10.368Z,101062.03
2023-04-30T18:13:15.736Z,101067.22
2023-04-30T18:16:21.630Z,101079.91
2023-04-30T18:19:27.013Z,101081.28
2023-04-30T18:22:32.412Z,101077.75
2023-04-30T18:25:37.510Z,101078.38
2023-04-30T18:28:42.624Z,101076.44
2023-04-30T18:31:49.024Z,101071.91
2023-04-30T18:34:54.464Z,101079.78
2023-04-30T18:38:00.653Z,101080.84
2023-04-30T18:41:05.935Z,101082.50
2023-04-30T18:44:13.808Z,101082.75
2023-04-30T18:47:19.276Z,101076.63
2023-04-30T18:50:26.010Z,101083.63
2023-04-30T18:53:31.586Z,101089.00
2023-04-30T18:56:37.290Z,101084.44
2023-04-30T18:59:43.319Z,101086.34
2023-04-30T19:02:48.784Z,101090.13
2023-04-30T19:05:56.883Z,101097.97
2023-04-30T19:09:02.052Z,101095.53
2023-04-30T19:12:07.647Z,101099.06
2023-04-30T19:15:15.431Z,101101.19
2023-04-30T19:18:21.491Z,101109.81
2023-04-30T19:21:28.629Z,101103.06
2023-04-30T19:24:33.877Z,101107.38
2023-04-30T19:27:39.245Z,101103.88
2023-04-30T19:30:44.709Z,101115.47
2023-04-30T19:33:50.367Z,101116.28
2023-04-30T19:36:55.656Z,101118.97
2023-04-30T19:40:01.003Z,101117.34
2023-04-30T19:43:06.354Z,101116.00
2023-04-30T19:46:12.040Z,101123.03
2023-04-30T19:49:18.122Z,101118.97
2023-04-30T19:52:23.252Z,101127.03
2023-04-30T19:55:28.772Z,101126.75
2023-04-30T19:58:34.016Z,101124.03
2023-04-30T20:01:40.058Z,101121.88
2023-04-30T20:04:45.899Z,101119.69
2023-04-30T20:07:51.890Z,101121.88
2023-04-30T20:10:58.018Z,101123.50
2023-04-30T20:14:05.340Z,101124.81
2023-04-30T20:17:11.111Z,101134.56
2023-04-30T20:20:18.525Z,101125.41
2023-04-30T20:23:23.993Z,101126.72
2023-04-30T20:26:29.981Z,101126.19
2023-04-30T20:29:36.268Z,101131.28
2023-04-30T20:32:42.483Z,101131.56
2023-04-30T20:35:47.862Z,101128.88
2023-04-30T20:38:54.533Z,101132.63
2023-04-30T20:42:01.638Z,101133.44
2023-04-30T20:45:07.503Z,101135.03
2023-04-30T20:48:12.704Z,101133.69
2023-04-30T20:51:18.761Z,101138.53
2023-04-30T20:54:24.268Z,101135.00
2023-04-30T20:57:29.648Z,101126.66
2023-04-30T21:00:35.535Z,101128.00
2023-04-30T21:03:41.190Z,101129.31
2023-04-30T21:06:46.282Z,101133.63
2023-04-30T21:09:52.014Z,101128.75
2023-04-30T21:12:57.006Z,101128.53
2023-04-30T21:16:02.402Z,101126.63
2023-04-30T21:19:07.900Z,101129.25
2023-04-30T21:22:13.261Z,101125.28
2023-04-30T21:25:18.365Z,101127.09
2023-04-30T21:28:23.274Z,101135.66
2023-04-30T21:31:29.505Z,101124.66
2023-04-30T21:34:34.885Z,101127.59
2023-04-30T21:37:41.141Z,101126.72
2023-04-30T21:40:46.505Z,101132.66
2023-04-30T21:43:52.136Z,101128.59
2023-04-30T21:46:57.657Z,101119.50
2023-04-30T21:50:03.493Z,101124.09
2023-04-30T21:53:08.661Z,101124.66
2023-04-30T21:56:15.029Z,101123.03
2023-04-30T21:59:20.310Z,101120.63
2023-04-30T22:02:26.699Z,101122.22
2023-04-30T22:05:32.363Z,101121.72
2023-04-30T22:08:37.948Z,101121.91
2023-04-30T22:11:43.866Z,101127.56
2023-04-30T22:14:53.408Z,101119.75
2023-04-30T22:17:58.993Z,101117.81
2023-04-30T22:21:04.583Z,101118.41
2023-04-30T22:24:10.210Z,101122.44
2023-04-30T22:27:16.805Z,101123.47
2023-04-30T22:30:22.156Z,101126.47
2023-04-30T22:33:27.890Z,101117.28
2023-04-30T22:36:33.325Z,101118.81
2023-04-30T22:39:39.613Z,101119.94
2023-04-30T22:42:45.740Z,101123.16
2023-04-30T22:45:51.467Z,101125.75
2023-04-30T22:48:56.480Z,101120.63
2023-04-30T22:52:02.463Z,101118.97
2023-04-30T22:55:08.431Z,101122.31
2023-04-30T22:58:14.212Z,101125.69
2023-04-30T23:01:20.334Z,101121.91
2023-04-30T23:04:27.008Z,101117.50
2023-04-30T23:07:32.364Z,101116.47
2023-04-30T23:10:37.650Z,101119.28
2023-04-30T23:13:43.239Z,101116.06
2023-04-30T23:16:49.122Z,101116.50
2023-04-30T23:19:54.844Z,101113.31
2023-04-30T23:23:00.887Z,101112.28
2023-04-30T23:26:06.372Z,101108.47
2023-04-30T23:29:11.931Z,101108.81
2023-04-30T23:32:17.618Z,101115.53
2023-04-30T23:35:23.499Z,101111.44
2023-04-30T23:38:29.052Z,101107.41
2023-04-30T23:41:34.397Z,101099.41
2023-04-30T23:44:40.008Z,101098.22
2023-04-30T23:47:45.850Z,101100.34
2023-04-30T23:51:08.588Z,101097.41
2023-04-30T23:54:14.469Z,101102.56
2023-04-30T23:57:20.196Z,101103.63
